createdAt,value
2023-01-19T00:02:04.501Z,-3.24
2023-01-19T00:07:07.203Z,-3.12
2023-01-19T00:12:08.619Z,-2.85
2023-01-19T00:17:09.919Z,-2.85
2023-01-19T00:22:11.241Z,-2.82
2023-01-19T00:27:12.548Z,-2.84
2023-01-19T00:32:16.255Z,-2.92
2023-01-19T00:37:18.035Z,-2.78
2023-01-19T00:42:38.531Z,-2.58
2023-01-19T00:47:40.021Z,-2.57
2023-01-19T00:52:41.695Z,-2.39
2023-01-19T00:57:45.840Z,-2.22
2023-01-19T01:02:47.843Z,-1.78
2023-01-19T01:07:49.840Z,-1.66
2023-01-19T01:13:20.363Z,-1.74
2023-01-19T01:18:13.172Z,-2.03
2023-01-19T01:23:14.893Z,-2.26
2023-01-19T01:28:16.247Z,-2.36
2023-01-19T01:33:41.011Z,-2.13
2023-01-19T01:38:40.134Z,-1.90
2023-01-19T01:43:44.003Z,-1.90
2023-01-19T01:49:01.375Z,-1.90
2023-01-19T01:54:21.503Z,-1.93
2023-01-19T01:59:28.057Z,-1.92
2023-01-19T02:04:29.770Z,-2.28
2023-01-19T02:09:51.909Z,-2.44
2023-01-19T02:14:53.211Z,-2.69
2023-01-19T02:19:54.520Z,-2.91
2023-01-19T02:24:55.840Z,-3.07
2023-01-19T02:29:57.284Z,-2.59
2023-01-19T02:34:58.623Z,-2.69
2023-01-19T02:40:01.838Z,-2.98
2023-01-19T02:45:06.799Z,-2.73
2023-01-19T02:50:28.115Z,-2.25
2023-01-19T02:55:31.149Z,-1.97
2023-01-19T03:00:51.402Z,-2.14
2023-01-19T03:05:56.791Z,-2.22
2023-01-19T03:11:16.287Z,-2.07
2023-01-19T03:16:22.651Z,-1.94
2023-01-19T03:21:29.637Z,-1.70
2023-01-19T03:26:34.103Z,-1.84
2023-01-19T03:31:36.767Z,-2.07
2023-01-19T03:36:44.207Z,-2.52
2023-01-19T03:41:48.330Z,-2.77
2023-01-19T03:46:50.334Z,-2.78
2023-01-19T03:51:54.991Z,-2.80
2023-01-19T03:56:56.406Z,-2.63
2023-01-19T04:01:58.466Z,-2.77
2023-01-19T04:07:00.039Z,-3.11
2023-01-19T04:12:01.941Z,-3.24
2023-01-19T04:17:03.271Z,-3.04
2023-01-19T04:22:04.852Z,-3.21
2023-01-19T04:27:06.194Z,-3.43
2023-01-19T04:32:07.499Z,-3.65
2023-01-19T04:37:09.001Z,-3.82
2023-01-19T04:42:10.297Z,-3.87
2023-01-19T04:47:11.795Z,-3.71
2023-01-19T04:52:13.115Z,-3.50
2023-01-19T04:57:14.419Z,-3.36
2023-01-19T05:02:15.754Z,-3.27
2023-01-19T05:07:17.252Z,-3.12
2023-01-19T05:12:18.603Z,-3.02
2023-01-19T05:17:19.981Z,-2.95
2023-01-19T05:22:21.291Z,-2.25
2023-01-19T05:27:22.595Z,-1.43
2023-01-19T05:32:23.907Z,-1.06
2023-01-19T05:37:25.323Z,-0.84
2023-01-19T05:42:26.628Z,-0.73
2023-01-19T05:47:31.161Z,-0.73
2023-01-19T05:52:32.476Z,-0.75
2023-01-19T05:57:34.967Z,-0.78
2023-01-19T06:02:36.323Z,-0.81
2023-01-19T06:07:37.719Z,-0.70
2023-01-19T06:12:39.545Z,-0.62
2023-01-19T06:17:40.915Z,-0.57
2023-01-19T06:22:42.267Z,-0.54
2023-01-19T06:27:44.765Z,-0.45
2023-01-19T06:32:46.188Z,-0.30
2023-01-19T06:37:47.653Z,-0.36
2023-01-19T06:42:49.180Z,-0.66
2023-01-19T06:47:50.551Z,-0.88
2023-01-19T06:52:52.277Z,-0.94
2023-01-19T06:57:59.773Z,-0.87
2023-01-19T07:03:01.422Z,-0.38
2023-01-19T07:08:03.914Z,-0.25
2023-01-19T07:13:05.698Z,0.09
2023-01-19T07:18:10.561Z,0.13
2023-01-19T07:23:11.890Z,0.24
2023-01-19T07:28:15.690Z,0.23
2023-01-19T07:33:17.148Z,0.14
2023-01-19T07:38:19.452Z,0.08
2023-01-19T07:43:20.927Z,0.04
2023-01-19T07:48:22.259Z,0.07
2023-01-19T07:53:23.568Z,-0.02
2023-01-19T07:58:25.272Z,0.06
2023-01-19T08:03:26.670Z,0.04
2023-01-19T08:08:29.695Z,0.12
2023-01-19T08:13:31.055Z,0.13
2023-01-19T08:18:32.463Z,0.20
2023-01-19T08:23:33.785Z,0.21
2023-01-19T08:28:35.078Z,0.32
2023-01-19T08:33:36.754Z,0.29
2023-01-19T08:38:41.272Z,0.23
2023-01-19T08:43:42.810Z,0.36
2023-01-19T08:48:48.341Z,0.39
2023-01-19T08:53:50.292Z,0.33
2023-01-19T08:59:07.614Z,0.38
2023-01-19T09:04:09.699Z,0.32
2023-01-19T09:09:11.014Z,0.32
2023-01-19T09:14:12.427Z,0.36
2023-01-19T09:19:14.089Z,0.39
2023-01-19T09:24:15.427Z,0.46
2023-01-19T09:29:16.790Z,0.45
2023-01-19T09:34:18.171Z,0.45
2023-01-19T09:39:19.479Z,0.41
2023-01-19T09:44:32.382Z,0.39
2023-01-19T09:49:36.863Z,0.51
2023-01-19T09:54:50.207Z,0.44
2023-01-19T09:59:51.860Z,0.46
2023-01-19T10:05:00.249Z,0.56
2023-01-19T10:10:18.540Z,0.62
2023-01-19T10:15:32.045Z,0.68
2023-01-19T10:20:36.452Z,0.77
2023-01-19T10:25:39.014Z,0.87
2023-01-19T10:30:42.938Z,1.01
2023-01-19T10:35:45.072Z,1.08
2023-01-19T10:40:49.518Z,1.01
2023-01-19T10:45:51.137Z,1.12
2023-01-19T10:51:05.815Z,1.38
2023-01-19T10:56:17.688Z,1.65
2023-01-19T11:01:24.216Z,1.92
2023-01-19T11:06:27.178Z,2.10
2023-01-19T11:11:41.283Z,2.17
2023-01-19T11:16:46.008Z,2.11
2023-01-19T11:21:47.557Z,2.00
2023-01-19T11:26:57.430Z,2.06
2023-01-19T11:32:09.521Z,2.22
2023-01-19T11:37:10.826Z,2.33
2023-01-19T11:42:13.624Z,2.64
2023-01-19T11:47:23.249Z,2.93
2023-01-19T11:52:36.757Z,2.98
2023-01-19T11:57:39.517Z,3.19
2023-01-19T12:02:46.830Z,3.29
2023-01-19T12:07:50.120Z,3.23
2023-01-19T12:12:52.577Z,3.14
2023-01-19T12:17:58.052Z,3.19
2023-01-19T12:23:11.842Z,3.36
2023-01-19T12:28:15.303Z,3.41
2023-01-19T12:33:20.328Z,3.55
2023-01-19T12:38:39.970Z,3.81
2023-01-19T12:43:41.379Z,4.21
2023-01-19T12:48:42.929Z,5.76
2023-01-19T12:53:51.285Z,5.39
2023-01-19T12:58:52.675Z,5.82
2023-01-19T13:04:00.012Z,4.92
2023-01-19T13:09:01.570Z,5.83
2023-01-19T13:14:02.958Z,5.39
2023-01-19T13:19:07.151Z,5.86
2023-01-19T13:24:10.449Z,6.32
2023-01-19T13:29:39.221Z,5.52
2023-01-19T13:34:42.896Z,5.11
2023-01-19T13:39:45.434Z,4.87
2023-01-19T13:44:53.628Z,5.50
2023-01-19T13:49:56.550Z,5.76
2023-01-19T13:55:02.336Z,5.39
2023-01-19T14:00:04.300Z,5.22
2023-01-19T14:05:15.619Z,4.55
2023-01-19T14:10:17.097Z,4.03
2023-01-19T14:15:18.442Z,3.93
2023-01-19T14:20:29.739Z,4.48
2023-01-19T14:25:32.426Z,4.67
2023-01-19T14:30:36.045Z,4.38
2023-01-19T14:35:37.437Z,4.55
2023-01-19T14:40:38.776Z,4.18
2023-01-19T14:45:43.258Z,3.88
2023-01-19T14:50:57.682Z,3.67
2023-01-19T14:56:04.735Z,3.70
2023-01-19T15:01:06.365Z,3.48
2023-01-19T15:06:12.663Z,3.43
2023-01-19T15:11:18.572Z,3.42
2023-01-19T15:16:20.167Z,3.30
2023-01-19T15:21:27.331Z,3.33
2023-01-19T15:26:29.236Z,3.13
2023-01-19T15:31:30.676Z,2.87
2023-01-19T15:36:32.593Z,2.73
2023-01-19T15:41:34.006Z,2.67
2023-01-19T15:46:35.391Z,2.63
2023-01-19T15:51:36.691Z,2.49
2023-01-19T15:56:38.226Z,2.31
2023-01-19T16:01:41.771Z,2.25
2023-01-19T16:06:58.264Z,2.12
2023-01-19T16:11:59.591Z,2.10
2023-01-19T16:17:01.652Z,2.06
2023-01-19T16:22:05.541Z,2.02
2023-01-19T16:27:08.828Z,1.94
2023-01-19T16:32:10.220Z,1.81
2023-01-19T16:37:11.888Z,1.73
2023-01-19T16:42:13.218Z,1.71
2023-01-19T16:47:14.673Z,1.57
2023-01-19T16:52:16.052Z,1.53
2023-01-19T16:57:17.352Z,1.34
2023-01-19T17:02:18.940Z,1.22
2023-01-19T17:07:20.271Z,1.11
2023-01-19T17:12:21.568Z,1.01
2023-01-19T17:17:22.929Z,1.02
2023-01-19T17:22:24.274Z,0.93
2023-01-19T17:27:25.591Z,0.92
2023-01-19T17:32:26.920Z,0.86
2023-01-19T17:37:28.235Z,0.80
2023-01-19T17:42:29.676Z,0.74
2023-01-19T17:47:31.005Z,0.72
2023-01-19T17:52:32.313Z,0.60
2023-01-19T17:57:33.737Z,0.55
2023-01-19T18:02:35.180Z,0.49
2023-01-19T18:07:36.495Z,0.44
2023-01-19T18:12:37.873Z,0.38
2023-01-19T18:17:39.175Z,0.38
2023-01-19T18:22:40.485Z,0.47
2023-01-19T18:27:41.780Z,0.48
2023-01-19T18:32:43.092Z,0.45
2023-01-19T18:37:44.452Z,0.41
2023-01-19T18:42:46.019Z,0.40
2023-01-19T18:47:47.326Z,0.36
2023-01-19T18:52:51.140Z,0.33
2023-01-19T18:57:52.499Z,0.27
2023-01-19T19:02:55.587Z,0.22
2023-01-19T19:07:56.921Z,0.18
2023-01-19T19:12:58.257Z,0.06
2023-01-19T19:18:00.149Z,-0.02
2023-01-19T19:23:01.475Z,-0.29
2023-01-19T19:28:03.088Z,-0.46
2023-01-19T19:33:04.788Z,-0.76
2023-01-19T19:38:06.099Z,-0.99
2023-01-19T19:43:07.399Z,-0.95
2023-01-19T19:48:08.716Z,-1.17
2023-01-19T19:53:10.029Z,-1.52
2023-01-19T19:58:11.355Z,-1.66
2023-01-19T20:03:13.467Z,-1.67
2023-01-19T20:08:14.805Z,-1.85
2023-01-19T20:13:19.147Z,-1.89
2023-01-19T20:18:20.464Z,-1.91
2023-01-19T20:23:21.779Z,-2.01
2023-01-19T20:28:23.090Z,-2.06
2023-01-19T20:33:24.412Z,-2.06
2023-01-19T20:38:25.740Z,-2.20
2023-01-19T20:43:27.181Z,-2.13
2023-01-19T20:48:28.779Z,-2.26
2023-01-19T20:53:30.525Z,-2.22
2023-01-19T20:58:32.045Z,-2.27
2023-01-19T21:03:34.728Z,-2.20
2023-01-19T21:08:36.632Z,-2.07
2023-01-19T21:13:38.104Z,-1.98
2023-01-19T21:18:39.752Z,-2.02
2023-01-19T21:23:41.181Z,-2.03
2023-01-19T21:28:42.831Z,-2.11
2023-01-19T21:33:44.246Z,-2.17
2023-01-19T21:38:45.551Z,-2.33
2023-01-19T21:43:47.084Z,-2.36
2023-01-19T21:48:48.507Z,-2.46
2023-01-19T21:53:52.094Z,-2.34
2023-01-19T21:58:54.135Z,-2.29
2023-01-19T22:03:56.531Z,-2.25
2023-01-19T22:08:58.345Z,-2.11
2023-01-19T22:14:00.177Z,-2.05
2023-01-19T22:19:02.245Z,-1.99
2023-01-19T22:24:04.357Z,-1.76
2023-01-19T22:29:10.948Z,-1.55
2023-01-19T22:34:13.460Z,-1.56
2023-01-19T22:39:14.803Z,-1.64
2023-01-19T22:44:17.499Z,-1.68
2023-01-19T22:49:18.868Z,-1.63
2023-01-19T22:54:22.961Z,-1.62
2023-01-19T22:59:24.310Z,-1.63
2023-01-19T23:04:25.614Z,-1.53
2023-01-19T23:09:27.005Z,-1.56
2023-01-19T23:14:31.680Z,-1.66
2023-01-19T23:19:36.077Z,-1.57
2023-01-19T23:24:38.505Z,-1.57
2023-01-19T23:29:39.922Z,-1.64
2023-01-19T23:34:41.263Z,-1.72
2023-01-19T23:39:42.610Z,-1.71
2023-01-19T23:44:44.165Z,-1.71
2023-01-19T23:49:45.553Z,-1.73
2023-01-19T23:54:46.866Z,-1.67
2023-01-19T23:59:48.299Z,-1.65
